sensor_id;sensor_type;location;lat;lon;timestamp;pressure;altitude;pressure_sealevel;temperature;humidity
2188;BME280;1100;52.014;8.540;2023-04-21T00:02:04;100135.31;;;6.85;72.79
2188;BME280;1100;52.014;8.540;2023-04-21T00:04:30;100134.19;;;6.82;72.94
2188;BME280;1100;52.014;8.540;2023-04-21T00:06:56;100130.25;;;6.80;72.40
2188;BME280;1100;52.014;8.540;2023-04-21T00:09:25;100124.78;;;6.76;72.77
2188;BME280;1100;52.014;8.540;2023-04-21T00:11:51;100118.06;;;6.73;72.81
2188;BME280;1100;52.014;8.540;2023-04-21T00:14:16;100119.69;;;6.71;72.73
2188;BME280;1100;52.014;8.540;2023-04-21T00:16:42;100116.97;;;6.67;72.72
2188;BME280;1100;52.014;8.540;2023-04-21T00:19:07;100108.34;;;6.62;72.77
2188;BME280;1100;52.014;8.540;2023-04-21T00:21:33;100105.59;;;6.62;73.00
2188;BME280;1100;52.014;8.540;2023-04-21T00:23:59;100103.22;;;6.60;72.67
2188;BME280;1100;52.014;8.540;2023-04-21T00:26:24;100107.59;;;6.57;72.70
2188;BME280;1100;52.014;8.540;2023-04-21T00:28:50;100103.25;;;6.56;72.72
2188;BME280;1100;52.014;8.540;2023-04-21T00:31:15;100097.41;;;6.51;72.83
2188;BME280;1100;52.014;8.540;2023-04-21T00:33:40;100096.66;;;6.46;72.64
2188;BME280;1100;52.014;8.540;2023-04-21T00:36:06;100102.63;;;6.41;72.76
2188;BME280;1100;52.014;8.540;2023-04-21T00:38:31;100094.00;;;6.35;72.77
2188;BME280;1100;52.014;8.540;2023-04-21T00:40:56;100095.28;;;6.27;72.63
2188;BME280;1100;52.014;8.540;2023-04-21T00:43:22;100095.34;;;6.20;72.76
2188;BME280;1100;52.014;8.540;2023-04-21T00:45:47;100089.06;;;6.16;72.83
2188;BME280;1100;52.014;8.540;2023-04-21T00:48:12;100095.72;;;6.22;73.08
2188;BME280;1100;52.014;8.540;2023-04-21T00:50:38;100088.19;;;6.26;72.98
2188;BME280;1100;52.014;8.540;2023-04-21T00:53:03;100083.84;;;6.25;73.07
2188;BME280;1100;52.014;8.540;2023-04-21T00:55:29;100092.13;;;6.25;72.84
2188;BME280;1100;52.014;8.540;2023-04-21T00:57:55;100092.13;;;6.29;73.38
2188;BME280;1100;52.014;8.540;2023-04-21T01:00:21;100098.00;;;6.31;73.37
2188;BME280;1100;52.014;8.540;2023-04-21T01:02:47;100094.06;;;6.32;72.98
2188;BME280;1100;52.014;8.540;2023-04-21T01:05:12;100085.72;;;6.35;73.15
2188;BME280;1100;52.014;8.540;2023-04-21T01:07:38;100098.28;;;6.40;73.25
2188;BME280;1100;52.014;8.540;2023-04-21T01:10:04;100086.78;;;6.49;73.58
2188;BME280;1100;52.014;8.540;2023-04-21T01:12:30;100083.56;;;6.54;74.02
2188;BME280;1100;52.014;8.540;2023-04-21T01:14:55;100086.97;;;6.66;73.97
2188;BME280;1100;52.014;8.540;2023-04-21T01:17:21;100099.84;;;6.80;74.05
2188;BME280;1100;52.014;8.540;2023-04-21T01:19:47;100090.59;;;6.94;74.30
2188;BME280;1100;52.014;8.540;2023-04-21T01:22:12;100092.47;;;7.04;74.73
2188;BME280;1100;52.014;8.540;2023-04-21T01:24:42;100084.84;;;7.12;74.42
2188;BME280;1100;52.014;8.540;2023-04-21T01:27:25;100078.09;;;7.17;74.14
2188;BME280;1100;52.014;8.540;2023-04-21T01:29:51;100083.91;;;7.22;74.68
2188;BME280;1100;52.014;8.540;2023-04-21T01:32:26;100079.88;;;7.31;74.60
2188;BME280;1100;52.014;8.540;2023-04-21T01:34:54;100079.75;;;7.38;74.94
2188;BME280;1100;52.014;8.540;2023-04-21T01:37:22;100075.31;;;7.44;75.09
2188;BME280;1100;52.014;8.540;2023-04-21T01:39:50;100082.34;;;7.49;75.05
2188;BME280;1100;52.014;8.540;2023-04-21T01:42:22;100074.03;;;7.53;74.68
2188;BME280;1100;52.014;8.540;2023-04-21T01:44:48;100082.72;;;7.51;75.22
2188;BME280;1100;52.014;8.540;2023-04-21T01:47:15;100070.09;;;7.50;74.83
2188;BME280;1100;52.014;8.540;2023-04-21T01:49:41;100073.22;;;7.52;75.00
2188;BME280;1100;52.014;8.540;2023-04-21T01:52:06;100065.72;;;7.53;75.36
2188;BME280;1100;52.014;8.540;2023-04-21T01:54:32;100072.44;;;7.52;75.39
2188;BME280;1100;52.014;8.540;2023-04-21T01:56:57;100064.50;;;7.54;75.64
2188;BME280;1100;52.014;8.540;2023-04-21T01:59:22;100069.25;;;7.53;75.62
2188;BME280;1100;52.014;8.540;2023-04-21T02:01:48;100062.16;;;7.52;75.74
2188;BME280;1100;52.014;8.540;2023-04-21T02:04:14;100061.03;;;7.50;75.71
2188;BME280;1100;52.014;8.540;2023-04-21T02:06:39;100057.09;;;7.47;75.71
2188;BME280;1100;52.014;8.540;2023-04-21T02:09:05;100055.91;;;7.48;76.39
2188;BME280;1100;52.014;8.540;2023-04-21T02:11:30;100059.09;;;7.46;75.83
2188;BME280;1100;52.014;8.540;2023-04-21T02:13:56;100054.81;;;7.42;75.74
2188;BME280;1100;52.014;8.540;2023-04-21T02:16:22;100063.16;;;7.38;75.67
2188;BME280;1100;52.014;8.540;2023-04-21T02:18:54;100054.19;;;7.30;75.70
2188;BME280;1100;52.014;8.540;2023-04-21T02:21:24;100063.69;;;7.29;75.89
2188;BME280;1100;52.014;8.540;2023-04-21T02:23:50;100062.53;;;7.27;76.06
2188;BME280;1100;52.014;8.540;2023-04-21T02:26:16;100066.88;;;7.28;75.92
2188;BME280;1100;52.014;8.540;2023-04-21T02:28:42;100065.72;;;7.25;75.69
2188;BME280;1100;52.014;8.540;2023-04-21T02:31:07;100067.75;;;7.21;76.00
2188;BME280;1100;52.014;8.540;2023-04-21T02:33:34;100070.97;;;7.16;75.67
2188;BME280;1100;52.014;8.540;2023-04-21T02:36:00;100068.22;;;7.16;76.21
2188;BME280;1100;52.014;8.540;2023-04-21T02:38:25;100064.97;;;7.21;76.10
2188;BME280;1100;52.014;8.540;2023-04-21T02:40:50;100071.22;;;7.25;75.97
2188;BME280;1100;52.014;8.540;2023-04-21T02:43:16;100064.16;;;7.24;76.15
2188;BME280;1100;52.014;8.540;2023-04-21T02:45:42;100061.84;;;7.19;75.93
2188;BME280;1100;52.014;8.540;2023-04-21T02:48:07;100067.03;;;7.17;75.91
2188;BME280;1100;52.014;8.540;2023-04-21T02:50:32;100074.56;;;7.13;75.89
2188;BME280;1100;52.014;8.540;2023-04-21T02:52:58;100077.41;;;7.09;76.03
2188;BME280;1100;52.014;8.540;2023-04-21T02:55:23;100077.03;;;7.07;76.12
2188;BME280;1100;52.014;8.540;2023-04-21T02:57:49;100077.88;;;7.00;75.94
2188;BME280;1100;52.014;8.540;2023-04-21T03:00:14;100073.19;;;6.97;75.97
2188;BME280;1100;52.014;8.540;2023-04-21T03:02:40;100082.31;;;6.94;75.96
2188;BME280;1100;52.014;8.540;2023-04-21T03:05:06;100081.59;;;6.90;75.90
2188;BME280;1100;52.014;8.540;2023-04-21T03:07:31;100080.06;;;6.85;75.85
2188;BME280;1100;52.014;8.540;2023-04-21T03:09:57;100085.25;;;6.79;75.84
2188;BME280;1100;52.014;8.540;2023-04-21T03:12:22;100081.41;;;6.73;75.65
2188;BME280;1100;52.014;8.540;2023-04-21T03:14:47;100083.41;;;6.69;75.94
2188;BME280;1100;52.014;8.540;2023-04-21T03:17:13;100084.63;;;6.64;75.29
2188;BME280;1100;52.014;8.540;2023-04-21T03:19:38;100079.53;;;6.63;75.41
2188;BME280;1100;52.014;8.540;2023-04-21T03:22:04;100083.91;;;6.60;75.72
2188;BME280;1100;52.014;8.540;2023-04-21T03:24:29;100089.03;;;6.58;75.76
2188;BME280;1100;52.014;8.540;2023-04-21T03:26:54;100086.31;;;6.54;75.65
2188;BME280;1100;52.014;8.540;2023-04-21T03:29:21;100082.81;;;6.50;75.45
2188;BME280;1100;52.014;8.540;2023-04-21T03:31:46;100084.44;;;6.47;75.42
2188;BME280;1100;52.014;8.540;2023-04-21T03:34:12;100084.84;;;6.46;75.53
2188;BME280;1100;52.014;8.540;2023-04-21T03:36:37;100080.09;;;6.46;75.52
2188;BME280;1100;52.014;8.540;2023-04-21T03:39:02;100083.63;;;6.47;75.70
2188;BME280;1100;52.014;8.540;2023-04-21T03:41:28;100084.47;;;6.44;75.44
2188;BME280;1100;52.014;8.540;2023-04-21T03:43:53;100084.06;;;6.42;75.64
2188;BME280;1100;52.014;8.540;2023-04-21T03:46:19;100082.91;;;6.43;75.68
2188;BME280;1100;52.014;8.540;2023-04-21T03:48:45;100088.41;;;6.43;75.76
2188;BME280;1100;52.014;8.540;2023-04-21T03:51:10;100080.97;;;6.40;75.62
2188;BME280;1100;52.014;8.540;2023-04-21T03:53:36;100085.31;;;6.37;75.54
2188;BME280;1100;52.014;8.540;2023-04-21T03:56:01;100088.13;;;6.33;75.72
2188;BME280;1100;52.014;8.540;2023-04-21T03:58:26;100081.00;;;6.32;76.05
2188;BME280;1100;52.014;8.540;2023-04-21T04:00:52;100078.31;;;6.29;75.65
2188;BME280;1100;52.014;8.540;2023-04-21T04:03:17;100075.97;;;6.27;75.68
2188;BME280;1100;52.014;8.540;2023-04-21T04:05:43;100082.31;;;6.20;75.91
2188;BME280;1100;52.014;8.540;2023-04-21T04:08:08;100078.78;;;6.20;75.61
2188;BME280;1100;52.014;8.540;2023-04-21T04:10:33;100079.97;;;6.19;75.90
2188;BME280;1100;52.014;8.540;2023-04-21T04:12:59;100078.00;;;6.19;75.83
2188;BME280;1100;52.014;8.540;2023-04-21T04:15:25;100081.53;;;6.20;76.09
2188;BME280;1100;52.014;8.540;2023-04-21T04:17:50;100076.38;;;6.26;75.80
2188;BME280;1100;52.014;8.540;2023-04-21T04:20:15;100084.59;;;6.29;76.09
2188;BME280;1100;52.014;8.540;2023-04-21T04:22:41;100074.25;;;6.37;75.98
2188;BME280;1100;52.014;8.540;2023-04-21T04:25:06;100080.13;;;6.43;76.08
2188;BME280;1100;52.014;8.540;2023-04-21T04:27:31;100068.28;;;6.46;75.91
2188;BME280;1100;52.014;8.540;2023-04-21T04:29:57;100075.72;;;6.49;75.93
2188;BME280;1100;52.014;8.540;2023-04-21T04:32:23;100079.22;;;6.53;76.13
2188;BME280;1100;52.014;8.540;2023-04-21T04:34:52;100083.94;;;6.56;76.01
2188;BME280;1100;52.014;8.540;2023-04-21T04:37:20;100076.78;;;6.59;76.10
2188;BME280;1100;52.014;8.540;2023-04-21T04:39:46;100074.81;;;6.59;76.20
2188;BME280;1100;52.014;8.540;2023-04-21T04:42:12;100078.38;;;6.60;76.17
2188;BME280;1100;52.014;8.540;2023-04-21T04:44:37;100072.06;;;6.59;75.88
2188;BME280;1100;52.014;8.540;2023-04-21T04:47:03;100072.44;;;6.62;76.36
2188;BME280;1100;52.014;8.540;2023-04-21T04:49:29;100072.03;;;6.63;76.05
2188;BME280;1100;52.014;8.540;2023-04-21T04:51:54;100076.31;;;6.68;76.13
2188;BME280;1100;52.014;8.540;2023-04-21T04:54:19;100071.09;;;6.73;76.67
2188;BME280;1100;52.014;8.540;2023-04-21T04:56:45;100078.97;;;6.75;76.64
2188;BME280;1100;52.014;8.540;2023-04-21T04:59:10;100080.91;;;6.78;76.33
2188;BME280;1100;52.014;8.540;2023-04-21T05:01:36;100067.91;;;6.79;75.99
2188;BME280;1100;52.014;8.540;2023-04-21T05:04:02;100070.63;;;6.82;76.37
2188;BME280;1100;52.014;8.540;2023-04-21T05:06:28;100075.31;;;6.85;76.45
2188;BME280;1100;52.014;8.540;2023-04-21T05:08:54;100084.72;;;6.92;76.21
2188;BME280;1100;52.014;8.540;2023-04-21T05:11:20;100079.50;;;6.97;76.24
2188;BME280;1100;52.014;8.540;2023-04-21T05:13:46;100086.94;;;7.04;76.09
2188;BME280;1100;52.014;8.540;2023-04-21T05:16:11;100086.41;;;7.13;76.52
2188;BME280;1100;52.014;8.540;2023-04-21T05:18:37;100088.66;;;7.22;76.39
2188;BME280;1100;52.014;8.540;2023-04-21T05:21:02;100083.78;;;7.33;76.43
2188;BME280;1100;52.014;8.540;2023-04-21T05:23:27;100086.78;;;7.43;76.57
2188;BME280;1100;52.014;8.540;2023-04-21T05:25:53;100089.41;;;7.54;76.44
2188;BME280;1100;52.014;8.540;2023-04-21T05:28:18;100094.34;;;7.66;76.58
2188;BME280;1100;52.014;8.540;2023-04-21T05:30:43;100091.84;;;7.76;76.54
2188;BME280;1100;52.014;8.540;2023-04-21T05:33:09;100090.88;;;7.86;76.49
2188;BME280;1100;52.014;8.540;2023-04-21T05:35:34;100095.53;;;7.93;76.36
2188;BME280;1100;52.014;8.540;2023-04-21T05:38:00;100093.78;;;8.03;76.25
2188;BME280;1100;52.014;8.540;2023-04-21T05:40:25;100107.06;;;8.12;76.50
2188;BME280;1100;52.014;8.540;2023-04-21T05:42:51;100102.19;;;8.19;76.52
2188;BME280;1100;52.014;8.540;2023-04-21T05:45:16;100106.84;;;8.26;76.71
2188;BME280;1100;52.014;8.540;2023-04-21T05:47:42;100100.81;;;8.31;76.39
2188;BME280;1100;52.014;8.540;2023-04-21T05:50:07;100099.13;;;8.38;76.49
2188;BME280;1100;52.014;8.540;2023-04-21T05:52:33;100106.91;;;8.43;76.36
2188;BME280;1100;52.014;8.540;2023-04-21T05:55:02;100104.09;;;8.46;76.71
2188;BME280;1100;52.014;8.540;2023-04-21T05:57:27;100109.16;;;8.52;76.50
2188;BME280;1100;52.014;8.540;2023-04-21T05:59:52;100105.59;;;8.51;76.26
2188;BME280;1100;52.014;8.540;2023-04-21T06:02:18;100099.34;;;8.47;76.32
2188;BME280;1100;52.014;8.540;2023-04-21T06:04:43;100099.34;;;8.47;76.58
2188;BME280;1100;52.014;8.540;2023-04-21T06:07:09;100103.31;;;8.46;76.65
2188;BME280;1100;52.014;8.540;2023-04-21T06:09:38;100099.81;;;8.42;76.49
2188;BME280;1100;52.014;8.540;2023-04-21T06:12:03;100102.66;;;8.38;76.45
2188;BME280;1100;52.014;8.540;2023-04-21T06:14:28;100100.25;;;8.40;76.75
2188;BME280;1100;52.014;8.540;2023-04-21T06:16:54;100106.22;;;8.39;76.54
2188;BME280;1100;52.014;8.540;2023-04-21T06:19:19;100096.25;;;8.41;76.80
2188;BME280;1100;52.014;8.540;2023-04-21T06:21:44;100093.00;;;8.46;76.51
2188;BME280;1100;52.014;8.540;2023-04-21T06:24:10;100094.22;;;8.45;76.65
2188;BME280;1100;52.014;8.540;2023-04-21T06:26:36;100090.94;;;8.51;76.63
2188;BME280;1100;52.014;8.540;2023-04-21T06:29:01;100086.09;;;8.58;76.40
2188;BME280;1100;52.014;8.540;2023-04-21T06:31:26;100082.81;;;8.64;76.67
2188;BME280;1100;52.014;8.540;2023-04-21T06:33:55;100077.97;;;8.68;76.65
2188;BME280;1100;52.014;8.540;2023-04-21T06:36:20;100083.88;;;8.70;76.74
2188;BME280;1100;52.014;8.540;2023-04-21T06:38:47;100083.03;;;8.73;77.50
2188;BME280;1100;52.014;8.540;2023-04-21T06:41:12;100087.03;;;8.72;76.62
2188;BME280;1100;52.014;8.540;2023-04-21T06:43:37;100085.81;;;8.73;76.87
2188;BME280;1100;52.014;8.540;2023-04-21T06:46:03;100084.16;;;8.76;76.92
2188;BME280;1100;52.014;8.540;2023-04-21T06:48:28;100080.97;;;8.77;77.07
2188;BME280;1100;52.014;8.540;2023-04-21T06:50:54;100085.53;;;8.88;76.72
2188;BME280;1100;52.014;8.540;2023-04-21T06:53:20;100085.41;;;9.12;77.35
2188;BME280;1100;52.014;8.540;2023-04-21T06:55:46;100082.00;;;9.41;77.48
2188;BME280;1100;52.014;8.540;2023-04-21T06:58:11;100081.00;;;9.68;77.09
2188;BME280;1100;52.014;8.540;2023-04-21T07:00:37;100087.59;;;9.91;77.01
2188;BME280;1100;52.014;8.540;2023-04-21T07:03:02;100083.75;;;10.18;76.75
2188;BME280;1100;52.014;8.540;2023-04-21T07:05:28;100095.41;;;10.42;76.53
2188;BME280;1100;52.014;8.540;2023-04-21T07:07:53;100088.63;;;10.60;76.39
2188;BME280;1100;52.014;8.540;2023-04-21T07:10:23;100085.66;;;10.80;76.09
2188;BME280;1100;52.014;8.540;2023-04-21T07:12:49;100094.81;;;10.94;75.85
2188;BME280;1100;52.014;8.540;2023-04-21T07:15:14;100087.16;;;11.11;75.76
2188;BME280;1100;52.014;8.540;2023-04-21T07:17:40;100086.53;;;11.20;75.31
2188;BME280;1100;52.014;8.540;2023-04-21T07:20:06;100086.06;;;11.34;75.29
2188;BME280;1100;52.014;8.540;2023-04-21T07:22:31;100091.19;;;11.49;75.03
2188;BME280;1100;52.014;8.540;2023-04-21T07:24:58;100083.94;;;11.65;74.99
2188;BME280;1100;52.014;8.540;2023-04-21T07:27:24;100084.06;;;11.74;74.47
2188;BME280;1100;52.014;8.540;2023-04-21T07:29:49;100087.03;;;11.80;74.41
2188;BME280;1100;52.014;8.540;2023-04-21T07:32:15;100083.78;;;11.94;74.03
2188;BME280;1100;52.014;8.540;2023-04-21T07:34:40;100083.84;;;12.30;74.01
2188;BME280;1100;52.014;8.540;2023-04-21T07:37:05;100085.16;;;12.61;73.18
2188;BME280;1100;52.014;8.540;2023-04-21T07:39:31;100084.44;;;12.92;73.34
2188;BME280;1100;52.014;8.540;2023-04-21T07:41:56;100094.44;;;13.12;72.77
2188;BME280;1100;52.014;8.540;2023-04-21T07:44:22;100090.78;;;13.24;71.65
2188;BME280;1100;52.014;8.540;2023-04-21T07:46:47;100092.56;;;13.40;72.15
2188;BME280;1100;52.014;8.540;2023-04-21T07:49:12;100093.50;;;13.78;72.29
2188;BME280;1100;52.014;8.540;2023-04-21T07:51:38;100088.59;;;14.11;71.36
2188;BME280;1100;52.014;8.540;2023-04-21T07:54:04;100090.16;;;14.40;71.30
2188;BME280;1100;52.014;8.540;2023-04-21T07:56:29;100105.38;;;14.76;70.88
2188;BME280;1100;52.014;8.540;2023-04-21T07:58:55;100087.97;;;14.72;70.24
2188;BME280;1100;52.014;8.540;2023-04-21T08:01:20;100098.09;;;14.23;68.84
2188;BME280;1100;52.014;8.540;2023-04-21T08:03:47;100089.13;;;13.68;68.89
2188;BME280;1100;52.014;8.540;2023-04-21T08:06:13;100087.41;;;13.29;69.40
2188;BME280;1100;52.014;8.540;2023-04-21T08:08:38;100090.75;;;13.15;69.42
2188;BME280;1100;52.014;8.540;2023-04-21T08:11:03;100085.38;;;12.98;69.43
2188;BME280;1100;52.014;8.540;2023-04-21T08:13:29;100081.97;;;12.94;69.48
2188;BME280;1100;52.014;8.540;2023-04-21T08:15:54;100084.75;;;13.26;70.04
2188;BME280;1100;52.014;8.540;2023-04-21T08:18:20;100085.84;;;13.60;68.54
2188;BME280;1100;52.014;8.540;2023-04-21T08:20:45;100081.44;;;14.00;68.84
2188;BME280;1100;52.014;8.540;2023-04-21T08:23:14;100083.00;;;14.29;68.76
2188;BME280;1100;52.014;8.540;2023-04-21T08:25:39;100085.50;;;14.27;68.53
2188;BME280;1100;52.014;8.540;2023-04-21T08:28:05;100073.69;;;14.14;68.30
2188;BME280;1100;52.014;8.540;2023-04-21T08:30:30;100082.50;;;14.03;68.25
2188;BME280;1100;52.014;8.540;2023-04-21T08:32:55;100077.38;;;13.92;68.03
2188;BME280;1100;52.014;8.540;2023-04-21T08:35:21;100074.41;;;13.77;68.00
2188;BME280;1100;52.014;8.540;2023-04-21T08:37:46;100084.50;;;13.74;67.90
2188;BME280;1100;52.014;8.540;2023-04-21T08:40:12;100079.38;;;13.73;68.18
2188;BME280;1100;52.014;8.540;2023-04-21T08:42:38;100078.44;;;13.76;68.39
2188;BME280;1100;52.014;8.540;2023-04-21T08:45:04;100081.97;;;13.67;67.90
2188;BME280;1100;52.014;8.540;2023-04-21T08:47:31;100070.63;;;13.52;67.72
2188;BME280;1100;52.014;8.540;2023-04-21T08:49:57;100066.97;;;13.42;68.39
2188;BME280;1100;52.014;8.540;2023-04-21T08:52:23;100068.84;;;13.45;68.53
2188;BME280;1100;52.014;8.540;2023-04-21T08:54:49;100071.19;;;13.46;68.43
2188;BME280;1100;52.014;8.540;2023-04-21T08:57:17;100067.63;;;13.46;68.49
2188;BME280;1100;52.014;8.540;2023-04-21T08:59:43;100067.03;;;13.51;68.65
2188;BME280;1100;52.014;8.540;2023-04-21T09:04:40;100055.75;;;13.55;68.69
2188;BME280;1100;52.014;8.540;2023-04-21T09:07:06;100057.31;;;13.65;68.48
2188;BME280;1100;52.014;8.540;2023-04-21T09:09:33;100051.28;;;13.86;68.84
2188;BME280;1100;52.014;8.540;2023-04-21T09:11:58;100052.56;;;14.03;68.49
2188;BME280;1100;52.014;8.540;2023-04-21T09:14:33;100057.84;;;14.29;68.06
2188;BME280;1100;52.014;8.540;2023-04-21T09:17:01;100055.47;;;14.93;67.75
2188;BME280;1100;52.014;8.540;2023-04-21T09:19:27;100044.81;;;15.75;67.74
2188;BME280;1100;52.014;8.540;2023-04-21T09:21:53;100043.88;;;16.42;67.34
2188;BME280;1100;52.014;8.540;2023-04-21T09:24:18;100042.72;;;16.94;66.45
2188;BME280;1100;52.014;8.540;2023-04-21T09:26:51;100052.94;;;17.42;65.49
2188;BME280;1100;52.014;8.540;2023-04-21T09:29:17;100043.28;;;17.28;63.40
2188;BME280;1100;52.014;8.540;2023-04-21T09:31:45;100048.41;;;17.00;63.40
2188;BME280;1100;52.014;8.540;2023-04-21T09:34:22;100038.66;;;16.95;63.95
2188;BME280;1100;52.014;8.540;2023-04-21T09:37:03;100041.19;;;17.08;64.06
2188;BME280;1100;52.014;8.540;2023-04-21T09:39:30;100052.44;;;17.44;64.18
2188;BME280;1100;52.014;8.540;2023-04-21T09:41:59;100047.13;;;17.88;63.44
2188;BME280;1100;52.014;8.540;2023-04-21T09:44:29;100042.28;;;18.30;62.65
2188;BME280;1100;52.014;8.540;2023-04-21T09:46:59;100037.19;;;18.61;62.35
2188;BME280;1100;52.014;8.540;2023-04-21T09:49:28;100038.50;;;18.65;61.60
2188;BME280;1100;52.014;8.540;2023-04-21T09:51:56;100050.44;;;18.81;60.38
2188;BME280;1100;52.014;8.540;2023-04-21T09:54:30;100032.78;;;18.80;60.78
2188;BME280;1100;52.014;8.540;2023-04-21T09:57:02;100044.97;;;18.98;60.61
2188;BME280;1100;52.014;8.540;2023-04-21T09:59:35;100043.63;;;19.20;59.14
2188;BME280;1100;52.014;8.540;2023-04-21T10:02:04;100041.25;;;19.13;58.10
2188;BME280;1100;52.014;8.540;2023-04-21T10:04:30;100030.69;;;18.75;58.56
2188;BME280;1100;52.014;8.540;2023-04-21T10:06:57;100026.88;;;18.78;59.32
2188;BME280;1100;52.014;8.540;2023-04-21T10:09:26;100019.50;;;18.87;58.01
2188;BME280;1100;52.014;8.540;2023-04-21T10:11:55;100019.31;;;18.64;57.33
2188;BME280;1100;52.014;8.540;2023-04-21T10:14:23;100006.72;;;18.59;56.56
2188;BME280;1100;52.014;8.540;2023-04-21T10:17:15;100014.25;;;18.68;57.41
2188;BME280;1100;52.014;8.540;2023-04-21T10:19:49;99994.06;;;19.08;56.10
2188;BME280;1100;52.014;8.540;2023-04-21T10:22:25;99998.88;;;19.39;57.50
2188;BME280;1100;52.014;8.540;2023-04-21T10:24:54;99999.69;;;19.46;56.92
2188;BME280;1100;52.014;8.540;2023-04-21T10:27:40;100000.44;;;19.02;56.55
2188;BME280;1100;52.014;8.540;2023-04-21T10:32:44;99989.19;;;18.43;56.88
2188;BME280;1100;52.014;8.540;2023-04-21T10:35:15;99986.44;;;18.49;57.06
2188;BME280;1100;52.014;8.540;2023-04-21T10:37:47;99981.38;;;18.53;57.20
2188;BME280;1100;52.014;8.540;2023-04-21T10:42:54;99989.53;;;19.65;56.17
2188;BME280;1100;52.014;8.540;2023-04-21T10:45:19;99982.31;;;19.59;55.59
2188;BME280;1100;52.014;8.540;2023-04-21T10:47:48;99977.03;;;19.23;54.43
2188;BME280;1100;52.014;8.540;2023-04-21T10:50:19;99974.06;;;19.44;54.66
2188;BME280;1100;52.014;8.540;2023-04-21T10:52:50;99968.22;;;19.59;53.87
2188;BME280;1100;52.014;8.540;2023-04-21T10:55:16;99969.88;;;19.27;54.11
2188;BME280;1100;52.014;8.540;2023-04-21T10:57:43;99962.09;;;18.78;54.12
2188;BME280;1100;52.014;8.540;2023-04-21T11:00:13;99963.19;;;18.87;54.52
2188;BME280;1100;52.014;8.540;2023-04-21T11:02:39;99956.78;;;18.86;54.48
2188;BME280;1100;52.014;8.540;2023-04-21T11:05:05;99952.75;;;18.61;54.62
2188;BME280;1100;52.014;8.540;2023-04-21T11:07:31;99951.41;;;18.24;53.71
2188;BME280;1100;52.014;8.540;2023-04-21T11:10:00;99946.47;;;17.92;54.88
2188;BME280;1100;52.014;8.540;2023-04-21T11:12:31;99942.25;;;18.55;55.02
2188;BME280;1100;52.014;8.540;2023-04-21T11:14:57;99933.94;;;18.78;54.43
2188;BME280;1100;52.014;8.540;2023-04-21T11:17:23;99938.03;;;18.72;54.08
2188;BME280;1100;52.014;8.540;2023-04-21T11:19:53;99932.75;;;18.53;54.55
2188;BME280;1100;52.014;8.540;2023-04-21T11:22:20;99923.38;;;18.67;55.06
2188;BME280;1100;52.014;8.540;2023-04-21T11:24:47;99922.47;;;18.50;52.87
2188;BME280;1100;52.014;8.540;2023-04-21T11:27:14;99932.78;;;18.59;53.26
2188;BME280;1100;52.014;8.540;2023-04-21T11:29:41;99917.63;;;18.50;53.38
2188;BME280;1100;52.014;8.540;2023-04-21T11:32:07;99917.81;;;18.41;52.74
2188;BME280;1100;52.014;8.540;2023-04-21T11:34:32;99913.81;;;18.86;53.92
2188;BME280;1100;52.014;8.540;2023-04-21T11:36:58;99898.50;;;19.53;51.56
2188;BME280;1100;52.014;8.540;2023-04-21T11:39:23;99896.38;;;20.21;53.17
2188;BME280;1100;52.014;8.540;2023-04-21T11:41:50;99896.88;;;20.31;52.95
2188;BME280;1100;52.014;8.540;2023-04-21T11:44:38;99899.59;;;19.73;51.77
2188;BME280;1100;52.014;8.540;2023-04-21T11:47:22;99892.06;;;19.41;50.72
2188;BME280;1100;52.014;8.540;2023-04-21T11:49:51;99881.69;;;19.10;51.18
2188;BME280;1100;52.014;8.540;2023-04-21T11:52:31;99888.16;;;19.27;51.53
2188;BME280;1100;52.014;8.540;2023-04-21T11:55:01;99891.56;;;19.49;50.89
2188;BME280;1100;52.014;8.540;2023-04-21T11:57:28;99887.78;;;19.58;51.39
2188;BME280;1100;52.014;8.540;2023-04-21T11:59:53;99880.38;;;19.77;49.64
2188;BME280;1100;52.014;8.540;2023-04-21T12:02:23;99875.06;;;20.02;49.09
2188;BME280;1100;52.014;8.540;2023-04-21T12:05:08;99870.66;;;19.96;47.71
2188;BME280;1100;52.014;8.540;2023-04-21T12:07:36;99873.03;;;20.20;48.13
2188;BME280;1100;52.014;8.540;2023-04-21T12:10:08;99854.22;;;20.74;47.77
2188;BME280;1100;52.014;8.540;2023-04-21T12:12:37;99870.38;;;20.91;46.98
2188;BME280;1100;52.014;8.540;2023-04-21T12:15:04;99861.63;;;21.00;43.78
2188;BME280;1100;52.014;8.540;2023-04-21T12:17:46;99854.50;;;20.71;43.59
2188;BME280;1100;52.014;8.540;2023-04-21T12:20:14;99857.81;;;20.75;43.31
2188;BME280;1100;52.014;8.540;2023-04-21T12:22:40;99846.97;;;20.90;42.96
2188;BME280;1100;52.014;8.540;2023-04-21T12:25:05;99844.91;;;21.08;43.61
2188;BME280;1100;52.014;8.540;2023-04-21T12:27:31;99847.16;;;21.21;41.36
2188;BME280;1100;52.014;8.540;2023-04-21T12:29:56;99838.88;;;21.35;43.01
2188;BME280;1100;52.014;8.540;2023-04-21T12:32:22;99846.53;;;21.46;41.05
2188;BME280;1100;52.014;8.540;2023-04-21T12:34:48;99831.56;;;21.57;40.51
2188;BME280;1100;52.014;8.540;2023-04-21T12:37:14;99831.19;;;21.29;38.72
2188;BME280;1100;52.014;8.540;2023-04-21T12:39:40;99831.75;;;21.22;39.81
2188;BME280;1100;52.014;8.540;2023-04-21T12:42:05;99829.19;;;21.66;41.68
2188;BME280;1100;52.014;8.540;2023-04-21T12:44:31;99825.03;;;22.10;41.51
2188;BME280;1100;52.014;8.540;2023-04-21T12:46:56;99824.78;;;22.38;40.25
2188;BME280;1100;52.014;8.540;2023-04-21T12:49:22;99828.00;;;22.48;39.73
2188;BME280;1100;52.014;8.540;2023-04-21T12:51:48;99824.81;;;22.63;39.69
2188;BME280;1100;52.014;8.540;2023-04-21T12:54:13;99836.31;;;22.71;39.17
2188;BME280;1100;52.014;8.540;2023-04-21T12:56:40;99818.44;;;22.51;39.20
2188;BME280;1100;52.014;8.540;2023-04-21T12:59:06;99814.69;;;22.43;37.65
2188;BME280;1100;52.014;8.540;2023-04-21T13:01:32;99808.06;;;22.35;39.44
2188;BME280;1100;52.014;8.540;2023-04-21T13:03:58;99831.69;;;22.43;37.94
2188;BME280;1100;52.014;8.540;2023-04-21T13:06:24;99817.00;;;22.45;37.74
2188;BME280;1100;52.014;8.540;2023-04-21T13:08:50;99830.19;;;22.36;36.74
2188;BME280;1100;52.014;8.540;2023-04-21T13:11:15;99811.66;;;22.10;35.15
2188;BME280;1100;52.014;8.540;2023-04-21T13:13:40;99800.69;;;21.59;35.41
2188;BME280;1100;52.014;8.540;2023-04-21T13:16:06;99806.91;;;21.51;37.01
2188;BME280;1100;52.014;8.540;2023-04-21T13:18:31;99803.94;;;21.74;36.09
2188;BME280;1100;52.014;8.540;2023-04-21T13:20:59;99792.69;;;21.99;35.75
2188;BME280;1100;52.014;8.540;2023-04-21T13:23:25;99801.81;;;21.86;36.04
2188;BME280;1100;52.014;8.540;2023-04-21T13:25:50;99786.28;;;21.99;34.49